Wolf 59 — CGBP — position and weather

sailwx.info

Track history (hours):
 
Tides and Currents Weather Stations Pressure Air Temp Water Temp Dewpoint Dewpoint Depression Visibility Wind Speed Wind Dir Waves Ship Positions

Wolf 59

Last reported at 2016-Sep-25 11:33 UTC. Time now 2016-Sep-25 12:19 UTC.
Position N 48°26' W 123°26'.

; draft 2.6 m.

Type: Military. MMSI: 316011515.

Date/timePositionNaut miles runAvg speedWind from/ knotsBaromVisibWave heightAir tempDewpointWater temp
2016-Sep-25 11:33N 48°26' W 123°26'0 0.0
2016-Sep-25 10:30N 48°26' W 123°26'0 0.0
2016-Sep-25 09:33N 48°26' W 123°26'0 0.0
2016-Sep-25 07:32N 48°26' W 123°26'0 0.0
2016-Sep-25 04:32N 48°26' W 123°26'0 0.0
2016-Sep-25 00:31N 48°26' W 123°26'0 0.0
2016-Sep-24 22:31N 48°26' W 123°26'0 0.0
2016-Sep-24 21:24N 48°26' W 123°26'0 0.0
2016-Sep-24 19:31N 48°26' W 123°26'0 0.0
2016-Sep-24 18:33N 48°26' W 123°26'0 0.0
2016-Sep-24 17:33N 48°26' W 123°26'0 0.0
2016-Sep-24 16:30N 48°26' W 123°26'0 0.0
2016-Sep-24 14:33N 48°26' W 123°26'0 0.0
2016-Sep-24 12:32N 48°26' W 123°26'0 0.0
2016-Sep-24 10:32N 48°26' W 123°26'0 0.0
2016-Sep-24 09:32N 48°26' W 123°26'0 0.0
2016-Sep-24 03:31N 48°26' W 123°26'0 0.0
2016-Sep-24 02:33N 48°26' W 123°26'0 0.0
2016-Sep-24 01:33N 48°26' W 123°26'0 0.0
2016-Sep-24 00:33N 48°26' W 123°26'0 0.0
2016-Sep-23 19:31N 48°26' W 123°26'0 0.0
2016-Sep-23 17:31N 48°26' W 123°26'0 0.0
2016-Sep-23 16:25N 48°26' W 123°26'0 0.0
2016-Sep-23 15:31N 48°26' W 123°26'0 0.0
2016-Sep-23 13:33N 48°26' W 123°26'0 0.0
2016-Sep-23 09:33N 48°26' W 123°26'0 0.0
2016-Sep-23 06:32N 48°26' W 123°26'0 0.0
2016-Sep-23 04:29N 48°26' W 123°26'0 0.0
2016-Sep-23 03:26N 48°26' W 123°26'0 0.0
2016-Sep-23 02:28N 48°26' W 123°26'0 0.0
2016-Sep-23 01:31N 48°26' W 123°26'0 0.0
2016-Sep-23 00:31N 48°26' W 123°26'0 0.0
2016-Sep-22 23:28N 48°26' W 123°26'0 0.0
2016-Sep-22 20:33N 48°26' W 123°26'0 0.0
2016-Sep-21 22:32N 48°26' W 123°26'10 3.5
2016-Sep-21 19:33N 48°19' W 123°15'11 3.6
2016-Sep-21 16:31N 48°30' W 123°13'15 2.1
2016-Sep-21 09:15N 48°45' W 123°15'0 0.0
2016-Sep-21 08:30N 48°45' W 123°15'0 0.0
2016-Sep-21 03:33N 48°45' W 123°15'0 0.0
2016-Sep-21 02:21N 48°45' W 123°15'36 4.1
2016-Sep-20 17:33N 49°12' W 123°51'4 1.0
2016-Sep-20 13:24N 49°10' W 123°56'0 0.0
2016-Sep-20 10:33N 49°10' W 123°56'0 0.0
2016-Sep-20 08:33N 49°10' W 123°56'0 0.0
2016-Sep-20 07:33N 49°10' W 123°56'0 0.0
2016-Sep-20 06:33N 49°10' W 123°56'0 0.0
2016-Sep-20 02:33N 49°10' W 123°56'15 5.0
2016-Sep-19 23:34N 49°25' W 123°60'3 0.8
2016-Sep-19 19:33N 49°25' W 123°55'8 8.1
2016-Sep-19 18:33N 49°22' W 123°43'16 8.1
2016-Sep-19 16:33N 49°19' W 123°19'9 4.3
2016-Sep-19 14:33N 49°17' W 123°06'0 0.0
2016-Sep-19 03:33N 49°17' W 123°06'0 0.0
2016-Sep-19 02:33N 49°17' W 123°06'0 0.0
2016-Sep-19 00:33N 49°17' W 123°06'0 0.0
2016-Sep-18 19:33N 49°17' W 123°06'0 0.0
2016-Sep-18 15:33N 49°17' W 123°06'0 0.0
2016-Sep-18 14:33N 49°17' W 123°06'0 0.0
2016-Sep-18 10:33N 49°17' W 123°06'0 0.0
2016-Sep-18 09:33N 49°17' W 123°06'0 0.0
2016-Sep-18 02:33N 49°17' W 123°06'0 0.0
2016-Sep-18 01:33N 49°17' W 123°06'0 0.0
2016-Sep-18 00:33N 49°17' W 123°06'0 0.0
2016-Sep-17 22:33N 49°17' W 123°06'0 0.0
2016-Sep-17 21:33N 49°17' W 123°06'0 0.0
2016-Sep-17 20:33N 49°17' W 123°06'0 0.0
2016-Sep-17 19:16N 49°17' W 123°06'0 0.0
2016-Sep-17 13:33N 49°17' W 123°06'0 0.0
2016-Sep-17 12:33N 49°17' W 123°06'0 0.0
2016-Sep-17 10:33N 49°17' W 123°06'0 0.0
2016-Sep-17 09:33N 49°17' W 123°06'0 0.0
2016-Sep-17 08:34N 49°17' W 123°06'0 0.0
2016-Sep-17 07:34N 49°17' W 123°06'0 0.0
2016-Sep-17 05:34N 49°17' W 123°06'0 0.0
2016-Sep-17 04:34N 49°17' W 123°06'0 0.0
2016-Sep-17 00:34N 49°17' W 123°06'16 2.2
2016-Sep-16 17:33N 49°16' W 123°30'18 3.3
2016-Sep-16 12:06N 49°10' W 123°56'0 0.0
2016-Sep-16 09:24N 49°10' W 123°56'0 0.0
2016-Sep-16 07:21N 49°10' W 123°56'0 0.0
2016-Sep-16 03:26N 49°10' W 123°56'0 0.0
2016-Sep-16 02:30N 49°10' W 123°56'0 0.0
2016-Sep-16 00:32N 49°10' W 123°56'0 0.0
2016-Sep-15 22:33N 49°10' W 123°56'0 0.0
2016-Sep-15 21:32N 49°10' W 123°56'0 0.0
2016-Sep-15 20:32N 49°10' W 123°56'3 1.6
2016-Sep-15 18:33N 49°13' W 123°53'3 0.5
2016-Sep-15 12:33N 49°10' W 123°56'0 0.0
2016-Sep-15 11:33N 49°10' W 123°56'  
Track history (hours):
 
Tides and Currents Weather Stations Pressure Air Temp Water Temp Dewpoint Dewpoint Depression Visibility Wind Speed Wind Dir Waves Ship Positions

Wolf 59

Last reported at 2016-Sep-25 11:33 UTC. Time now 2016-Sep-25 12:19 UTC.
Position N 48°26' W 123°26'.

; draft 2.6 m.

Type: Military. MMSI: 316011515.

Date/timePositionNaut miles runAvg speedWind from/ knotsBaromVisibWave heightAir tempDewpointWater temp
2016-Sep-25 11:33N 48°26' W 123°26'0 0.0
2016-Sep-25 10:30N 48°26' W 123°26'0 0.0
2016-Sep-25 09:33N 48°26' W 123°26'0 0.0
2016-Sep-25 07:32N 48°26' W 123°26'0 0.0
2016-Sep-25 04:32N 48°26' W 123°26'0 0.0
2016-Sep-25 00:31N 48°26' W 123°26'0 0.0
2016-Sep-24 22:31N 48°26' W 123°26'0 0.0
2016-Sep-24 21:24N 48°26' W 123°26'0 0.0
2016-Sep-24 19:31N 48°26' W 123°26'0 0.0
2016-Sep-24 18:33N 48°26' W 123°26'0 0.0
2016-Sep-24 17:33N 48°26' W 123°26'0 0.0
2016-Sep-24 16:30N 48°26' W 123°26'0 0.0
2016-Sep-24 14:33N 48°26' W 123°26'0 0.0
2016-Sep-24 12:32N 48°26' W 123°26'0 0.0
2016-Sep-24 10:32N 48°26' W 123°26'0 0.0
2016-Sep-24 09:32N 48°26' W 123°26'0 0.0
2016-Sep-24 03:31N 48°26' W 123°26'0 0.0
2016-Sep-24 02:33N 48°26' W 123°26'0 0.0
2016-Sep-24 01:33N 48°26' W 123°26'0 0.0
2016-Sep-24 00:33N 48°26' W 123°26'0 0.0
2016-Sep-23 19:31N 48°26' W 123°26'0 0.0
2016-Sep-23 17:31N 48°26' W 123°26'0 0.0
2016-Sep-23 16:25N 48°26' W 123°26'0 0.0
2016-Sep-23 15:31N 48°26' W 123°26'0 0.0
2016-Sep-23 13:33N 48°26' W 123°26'0 0.0
2016-Sep-23 09:33N 48°26' W 123°26'0 0.0
2016-Sep-23 06:32N 48°26' W 123°26'0 0.0
2016-Sep-23 04:29N 48°26' W 123°26'0 0.0
2016-Sep-23 03:26N 48°26' W 123°26'0 0.0
2016-Sep-23 02:28N 48°26' W 123°26'0 0.0
2016-Sep-23 01:31N 48°26' W 123°26'0 0.0
2016-Sep-23 00:31N 48°26' W 123°26'0 0.0
2016-Sep-22 23:28N 48°26' W 123°26'0 0.0
2016-Sep-22 20:33N 48°26' W 123°26'0 0.0
2016-Sep-21 22:32N 48°26' W 123°26'10 3.5
2016-Sep-21 19:33N 48°19' W 123°15'11 3.6
2016-Sep-21 16:31N 48°30' W 123°13'15 2.1
2016-Sep-21 09:15N 48°45' W 123°15'0 0.0
2016-Sep-21 08:30N 48°45' W 123°15'0 0.0
2016-Sep-21 03:33N 48°45' W 123°15'0 0.0
2016-Sep-21 02:21N 48°45' W 123°15'36 4.1
2016-Sep-20 17:33N 49°12' W 123°51'4 1.0
2016-Sep-20 13:24N 49°10' W 123°56'0 0.0
2016-Sep-20 10:33N 49°10' W 123°56'0 0.0
2016-Sep-20 08:33N 49°10' W 123°56'0 0.0
2016-Sep-20 07:33N 49°10' W 123°56'0 0.0
2016-Sep-20 06:33N 49°10' W 123°56'0 0.0
2016-Sep-20 02:33N 49°10' W 123°56'15 5.0
2016-Sep-19 23:34N 49°25' W 123°60'3 0.8
2016-Sep-19 19:33N 49°25' W 123°55'8 8.1
2016-Sep-19 18:33N 49°22' W 123°43'16 8.1
2016-Sep-19 16:33N 49°19' W 123°19'9 4.3
2016-Sep-19 14:33N 49°17' W 123°06'0 0.0
2016-Sep-19 03:33N 49°17' W 123°06'0 0.0
2016-Sep-19 02:33N 49°17' W 123°06'0 0.0
2016-Sep-19 00:33N 49°17' W 123°06'0 0.0
2016-Sep-18 19:33N 49°17' W 123°06'0 0.0
2016-Sep-18 15:33N 49°17' W 123°06'0 0.0
2016-Sep-18 14:33N 49°17' W 123°06'0 0.0
2016-Sep-18 10:33N 49°17' W 123°06'0 0.0
2016-Sep-18 09:33N 49°17' W 123°06'0 0.0
2016-Sep-18 02:33N 49°17' W 123°06'0 0.0
2016-Sep-18 01:33N 49°17' W 123°06'0 0.0
2016-Sep-18 00:33N 49°17' W 123°06'0 0.0
2016-Sep-17 22:33N 49°17' W 123°06'0 0.0
2016-Sep-17 21:33N 49°17' W 123°06'0 0.0
2016-Sep-17 20:33N 49°17' W 123°06'0 0.0
2016-Sep-17 19:16N 49°17' W 123°06'0 0.0
2016-Sep-17 13:33N 49°17' W 123°06'0 0.0
2016-Sep-17 12:33N 49°17' W 123°06'0 0.0
2016-Sep-17 10:33N 49°17' W 123°06'0 0.0
2016-Sep-17 09:33N 49°17' W 123°06'0 0.0
2016-Sep-17 08:34N 49°17' W 123°06'0 0.0
2016-Sep-17 07:34N 49°17' W 123°06'0 0.0
2016-Sep-17 05:34N 49°17' W 123°06'0 0.0
2016-Sep-17 04:34N 49°17' W 123°06'0 0.0
2016-Sep-17 00:34N 49°17' W 123°06'16 2.2
2016-Sep-16 17:33N 49°16' W 123°30'18 3.3
2016-Sep-16 12:06N 49°10' W 123°56'0 0.0
2016-Sep-16 09:24N 49°10' W 123°56'0 0.0
2016-Sep-16 07:21N 49°10' W 123°56'0 0.0
2016-Sep-16 03:26N 49°10' W 123°56'0 0.0
2016-Sep-16 02:30N 49°10' W 123°56'0 0.0
2016-Sep-16 00:32N 49°10' W 123°56'0 0.0
2016-Sep-15 22:33N 49°10' W 123°56'0 0.0
2016-Sep-15 21:32N 49°10' W 123°56'0 0.0
2016-Sep-15 20:32N 49°10' W 123°56'3 1.6
2016-Sep-15 18:33N 49°13' W 123°53'3 0.5
2016-Sep-15 12:33N 49°10' W 123°56'0 0.0
2016-Sep-15 11:33N 49°10' W 123°56'  

Dump ship's entire track history